Flight Track Log - Related Links

Times and Time Zones

All times are in EDT time to prevent confusion due to time zone crossing. See the UAL4108 flight status page for this flight to view local times or setup timezone preferences in your user account.

Time Position Orientation Groundspeed Altitude Reporting Facility
EDT Latitude Longitude Course Direction KTS MPH feet Rate Location/Type
Mon 11:37:27 AM 40.6333 -74.1833 27° Northeast 183 211 2,300  Level New York TRACON
Mon 11:38:27 AM 40.6333 -74.2500 270° West 241 277 4,400 1,900 Climbing New York TRACON
Mon 11:39:00 AM 40.9063 -73.9104 37° Northeast  Level FlightAware Approximate
Mon 11:39:27 AM 40.6833 -74.2167 27° Northeast 265 305 6,100  Level New York TRACON
Mon 11:40:00 AM 40.9887 -73.8280 37° Northeast  Level FlightAware Approximate
Mon 11:40:27 AM 40.7167 -74.1167 66° East 290 334 6,700  Level New York TRACON
Mon 11:41:00 AM 41.0680 -73.7402 40° Northeast  Level FlightAware Approximate
Mon 11:41:27 AM 40.7500 -74.0167 66° East 293 337 8,800  Level New York TRACON
Mon 11:42:00 AM 41.1491 -73.6562 27° Northeast  Level FlightAware Approximate
Mon 11:42:27 AM 40.7833 -73.9167 66° East 322 371 10,100  Level New York TRACON
Mon 11:43:27 AM 40.8333 -73.8000 60° Northeast 379 436 10,400 950 Climbing New York TRACON
Mon 11:44:27 AM 40.9000 -73.6833 53° Northeast 391 450 12,000 1,492 Climbing New York TRACON
Mon 11:46:36 AM 41.0778 -73.5442 31° Northeast 377 434 15,100 1,444 Climbing Boston Center
Mon 11:47:34 AM 41.1825 -73.4853 23° Northeast 371 427 16,500 1,220 Climbing Boston Center
Mon 11:48:34 AM 41.2706 -73.4344 23° Northeast 377 434 17,500 950 Climbing Boston Center
Mon 11:49:34 AM 41.3794 -73.3697 24° Northeast 377 434 18,400 843 Climbing Boston Center
Mon 11:50:35 AM 41.4736 -73.3183 22° Northeast 377 434 19,200 1,082 Climbing Boston Center
Mon 11:51:36 AM 41.5806 -73.2644 21° North 378 435 20,600 893 Climbing Boston Center
Mon 11:52:36 AM 41.6867 -73.2739 356° North 369 425 21,000 200 Climbing Boston Center
Mon 11:53:36 AM 41.7969 -73.2783 358° North 375 432 21,000  Level Boston Center
Mon 11:54:34 AM 41.9053 -73.2825 358° North 381 438 21,000  Level Boston Center
Mon 11:55:36 AM 41.9908 -73.2892 357° North 381 438 21,000  Level Boston Center
Mon 11:56:34 AM 42.1053 -73.2964 357° North 381 438 21,000  Level Boston Center
Mon 11:57:35 AM 42.2100 -73.2500 18° North 387 445 21,000  Level Boston Center
Mon 11:58:34 AM 42.2900 -73.1278 48° Northeast 386 444 21,000  Level Boston Center
Mon 11:59:35 AM 42.3678 -72.9881 53° Northeast 429 494 21,000  Level Boston Center
Mon 12:00:36 PM 42.4475 -72.8594 50° Northeast 437 503 21,000  Level Boston Center
Mon 12:01:34 PM 42.5250 -72.7247 52° Northeast 447 514 21,000  Level Boston Center
Mon 12:02:35 PM 42.6044 -72.6008 49° Northeast 447 514 21,000  Level Boston Center
Mon 12:03:35 PM 42.6839 -72.4767 49° Northeast 447 514 21,000  Level Boston Center
Mon 12:04:36 PM 42.7650 -72.3439 50° Northeast 442 509 21,000  Level Boston Center
Mon 12:05:34 PM 42.8461 -72.2022 52° Northeast 442 509 21,000  Level Boston Center
Mon 12:06:36 PM 42.9228 -72.0714 51° Northeast 442 509 21,000 -91 Level Boston Center
Mon 12:07:46 PM 42.9994 -71.9406 51° Northeast 442 509 20,800 -738 Descending Boston Center
Mon 12:08:46 PM 43.0944 -71.7806 51° Northeast 442 509 19,400 -1,300 Descending Boston Center
Mon 12:09:46 PM 43.1708 -71.6544 50° Northeast 442 509 18,200 -1,091 Descending Boston Center
Mon 12:10:47 PM 43.2286 -71.5539 52° Northeast 436 502 17,200 -1,636 Descending Boston Center
Mon 12:11:47 PM 43.3147 -71.4100 51° Northeast 431 496 14,900 -2,132 Descending Boston Center
Mon 12:12:48 PM 43.3844 -71.2858 52° Northeast 412 474 12,900 -1,672 Descending Boston Center
Mon 12:13:49 PM 43.4458 -71.1733 53° Northeast 377 434 11,500 -1,017 Descending Boston Center
Mon 12:14:46 PM 43.4942 -71.0406 63° Northeast 377 434 10,900 -458 Descending Boston Center
Mon 12:15:47 PM 43.5281 -70.9108 70° East 365 420 10,600 -650 Descending Boston Center
Mon 12:16:46 PM 43.5433 -70.8161 77° East 345 397 9,600 -1,563 Descending Boston Center
Mon 12:17:46 PM 43.5311 -70.6817 97° East 309 356 7,500 -1,587 Descending Boston Center
Mon 12:18:47 PM 43.5275 -70.5844 93° East 287 330 6,400 -1,131 Descending Boston Center
Mon 12:19:48 PM 43.5194 -70.4758 96° East 266 306 5,200 -1,059 Descending Boston Center
Mon 12:20:46 PM 43.5158 -70.3900 93° East 249 287 4,300 -814 Descending Boston Center
Mon 12:21:46 PM 43.5094 -70.2817 95° East 254 292 3,600 -694 Descending Boston Center
Mon 12:22:47 PM 43.5247 -70.2008 75° East 247 284 2,900 -689 Descending Boston Center

Login

Don't have an account? Register now (free) for customized features, flight alerts, and more!